Latest Weather Observations for Gelantipy

IDV60801

Issued at 11:35 am EST Friday 19 September 2014 (issued every 30 minutes, with the page automatically refreshed every 10 minutes)

About weather observations | Map of weather stations | Latest weather observations for VIC | Other Formats
Station Details ID: 084142 Name: GELANTIPY Lat: -37.22 Lon: 148.26 Height: 755.0 m
Data from the previous 72 hours. | See also: Recent months at Gelantipy
Date/Time
EST
Temp
°C
App
Temp
°C
Dew
Point
Rel
Hum
%
Delta-T
°C
Wind Press
QNH
hPa
Press
MSL
hPa
Rain
since 9 am
mm
Dir
 
Spd
km/h
Gust
km/h
Spd
kts
Gust
kts
19/11:30am 7.9 1.7 2.2 67 2.5 WSW 24 35 13 19 1021.6 1021.6 0.0
19/11:00am 7.8 2.4 2.7 70 2.2 SW 20 35 11 19 1021.8 1021.8 0.0
19/10:30am 7.0 1.5 2.1 71 2.1 SW 20 28 11 15 1021.9 1021.9 0.0
19/10:00am 6.2 0.8 2.3 76 1.7 SW 20 32 11 17 1022.0 1022.0 0.0
19/09:30am 5.7 0.9 2.4 79 1.4 WSW 17 24 9 13 1022.1 1022.1 0.0
19/09:00am 5.7 0.7 1.6 75 1.7 SW 17 26 9 14 1022.0 1022.0 0.4
19/08:30am 5.1 0.0 1.0 75 1.7 SW 17 28 9 15 1021.9 1021.9 0.4
19/08:00am 5.3 -0.3 1.2 75 1.7 SW 20 32 11 17 1021.6 1021.6 0.4
19/07:30am 5.1 0.0 0.7 73 1.8 WSW 17 24 9 13 1021.3 1021.3 0.4
19/07:00am 4.1 -1.5 -0.1 74 1.7 WSW 19 24 10 13 1021.1 1021.2 0.4
19/06:30am 3.4 -1.1 -0.2 77 1.4 WSW 13 17 7 9 1020.9 1020.9 0.4
19/06:00am 2.6 -1.5 -0.5 80 1.2 WSW 11 15 6 8 1020.8 1020.8 0.4
19/05:30am 2.3 -2.3 -1.1 78 1.3 WSW 13 17 7 9 1020.6 1020.6 0.4
19/05:00am 2.5 -1.7 -1.1 77 1.4 WSW 11 19 6 10 1020.6 1020.6 0.4
19/04:30am 2.7 -1.9 -0.9 77 1.4 SW 13 28 7 15 1020.3 1020.3 0.4
19/04:00am 2.9 -1.7 -0.7 77 1.4 SW 13 22 7 12 1020.4 1020.4 0.4
19/03:30am 2.9 -2.4 -0.7 77 1.4 WSW 17 24 9 13 1020.2 1020.2 0.4
19/03:00am 3.0 -2.3 -0.5 78 1.3 WSW 17 26 9 14 1020.3 1020.3 0.4
19/02:30am 3.1 -2.2 -0.5 77 1.4 WSW 17 26 9 14 1020.5 1020.5 0.4
19/02:00am 3.4 -1.9 -0.4 76 1.5 SW 17 24 9 13 1020.8 1020.8 0.4
19/01:30am 3.1 -0.9 0.2 81 1.1 SSW 11 17 6 9 1021.0 1021.1 0.4
19/01:00am 3.2 -1.6 0.3 81 1.1 SW 15 24 8 13 1021.4 1021.4 0.4
19/12:30am 3.3 -2.5 0.2 80 1.2 WSW 20 30 11 16 1021.4 1021.4 0.4
19/12:00am 3.8 -1.8 1.0 82 1.1 SW 20 33 11 18 1021.4 1021.4 0.4
 
Date/Time
EST
Temp
°C
App
Temp
°C
Dew
Point
Rel
Hum
%
Delta-T
°C
Wind Press
QNH
hPa
Press
MSL
hPa
Rain
since 9 am
mm
Dir
 
Spd
km/h
Gust
km/h
Spd
kts
Gust
kts
18/11:30pm 4.4 -1.5 1.8 83 1.1 WSW 22 32 12 17 1021.5 1021.5 0.4
18/11:00pm 4.3 -0.5 2.7 89 0.7 WSW 17 28 9 15 1021.5 1021.5 0.4
18/10:30pm 4.2 -1.0 2.6 89 0.7 WSW 19 30 10 16 1021.5 1021.5 0.4
18/10:00pm 4.1 -1.3 2.5 89 0.7 WSW 20 28 11 15 1021.4 1021.4 0.4
18/09:30pm 4.3 0.2 2.5 88 0.8 WSW 13 19 7 10 1021.3 1021.3 0.2
18/09:00pm 4.8 1.0 2.0 82 1.2 SW 11 15 6 8 1021.4 1021.4 0.2
18/08:30pm 5.0 -0.4 1.1 76 1.6 SW 19 28 10 15 1021.1 1021.2 0.2
18/08:00pm 4.8 -0.2 1.3 78 1.4 SW 17 22 9 12 1020.9 1020.9 0.2
18/07:30pm 5.1 0.1 1.2 76 1.6 SW 17 24 9 13 1020.7 1020.7 0.2
18/07:00pm 5.3 -0.1 1.2 75 1.7 WSW 19 26 10 14 1020.5 1020.5 0.2
18/06:30pm 5.1 0.9 1.6 78 1.5 SW 13 20 7 11 1020.3 1020.3 0.2
18/06:00pm 5.4 0.0 1.3 75 1.7 WSW 19 28 10 15 1019.9 1019.8 0.2
18/05:30pm 6.1 1.7 2.9 80 1.4 SW 15 28 8 15 1019.6 1019.6 0.2
18/05:00pm 5.4 2.0 4.2 92 0.5 S 11 17 6 9 1019.2 1019.2 0.2
18/04:30pm 5.2 0.9 3.5 89 0.7 S 15 26 8 14 1018.8 1018.8 0.2
18/04:00pm 7.2 1.4 2.5 72 2.0 WSW 22 35 12 19 1018.5 1018.4 0.2
18/03:30pm 7.3 1.6 2.6 72 2.1 WSW 22 30 12 16 1018.3 1018.3 0.2
18/03:00pm 7.0 2.9 2.5 73 1.9 SSW 13 22 7 12 1018.2 1018.2 0.2
18/02:30pm 8.3 2.8 2.1 65 2.7 W 20 30 11 16 1017.9 1017.9 0.2
18/02:00pm 7.6 0.7 2.7 71 2.1 WSW 28 39 15 21 1018.2 1018.2 0.2
18/01:30pm 8.1 2.7 2.6 68 2.4 SW 20 32 11 17 1018.2 1018.2 0.2
18/01:00pm 5.1 -1.0 2.5 83 1.1 W 24 44 13 24 1018.7 1018.6 0.2
18/12:30pm 7.2 0.6 2.3 71 2.1 WSW 26 37 14 20 1018.3 1018.3 0.0
18/12:00pm 6.6 1.5 0.5 65 2.5 SW 17 32 9 17 1018.5 1018.4 0.0
18/11:30am 6.3 0.5 2.2 75 1.8 WSW 22 33 12 18 1018.8 1018.8 0.0
18/11:00am 4.9 -0.9 2.4 84 1.1 SW 22 30 12 16 1018.8 1018.8 0.0
18/10:30am 4.3 -1.6 1.7 83 1.1 SW 22 35 12 19 1018.8 1018.8 0.0
18/10:00am 4.6 -1.8 1.1 78 1.4 WSW 24 32 13 17 1018.7 1018.6 0.0
18/09:30am 4.4 -2.1 0.6 76 1.5 SW 24 37 13 20 1018.5 1018.4 0.0
18/09:00am 4.3 -2.1 1.2 80 1.3 WSW 24 37 13 20 1018.2 1018.2 1.8
18/08:30am 4.0 -2.4 0.7 79 1.3 SW 24 35 13 19 1017.9 1017.9 1.8
18/08:00am 3.9 -3.3 0.4 78 1.4 WSW 28 41 15 22 1017.6 1017.5 1.8
18/07:30am 3.6 -4.0 0.3 79 1.3 WSW 30 43 16 23 1017.3 1017.2 1.8
18/07:00am 3.6 -3.7 0.3 79 1.3 WSW 28 39 15 21 1017.1 1017.0 1.8
18/06:30am 3.4 -3.1 0.1 79 1.3 SW 24 35 13 19 1016.6 1016.6 1.8
18/06:09am 3.4 -3.9 0.1 79 1.3 SW 28 46 15 25 1016.1 1016.0 1.8
18/06:00am 3.2 -4.1 0.1 80 1.2 SW 28 43 15 23 1016.1 1016.0 1.8
18/05:30am 3.1 -4.9 0.3 82 1.1 SW 32 48 17 26 1015.8 1015.7 1.8
18/05:07am 3.2 -4.1 0.1 80 1.2 SW 28 46 15 25 1015.7 1015.6 1.8
18/05:00am 3.2 -4.0 0.4 82 1.1 SW 28 43 15 23 1015.7 1015.6 1.8
18/04:34am 3.0 -4.2 0.7 85 0.9 WSW 28 46 15 25 1015.3 1015.3 1.8
18/04:30am 3.0 -5.0 0.7 85 0.9 WSW 32 46 17 25 1015.1 1015.0 1.8
18/04:00am 3.1 -3.8 0.3 82 1.1 SW 26 33 14 18 1014.8 1014.7 1.8
18/03:30am 3.3 -3.3 -0.2 78 1.4 SW 24 33 13 18 1014.5 1014.4 1.8
18/03:00am 3.4 -3.2 -0.6 75 1.5 WSW 24 37 13 20 1014.4 1014.3 1.8
18/02:40am 3.4 -4.0 -1.0 73 1.7 WSW 28 46 15 25 1014.2 1014.0 1.8
18/02:30am 3.3 -3.7 -0.5 76 1.5 WSW 26 37 14 20 1014.2 1014.0 1.8
18/02:00am 3.3 -2.9 -0.5 76 1.5 WSW 22 32 12 17 1014.5 1014.4 1.8
18/01:30am 2.5 -3.2 -0.8 79 1.3 WSW 19 26 10 14 1014.5 1014.4 1.8
18/01:00am 2.3 -2.5 -0.1 84 0.9 WSW 15 20 8 11 1014.7 1014.6 1.8
18/12:30am 2.7 -3.9 -0.2 81 1.1 WSW 24 33 13 18 1014.8 1014.7 1.8
18/12:00am 2.6 -3.5 0.2 84 0.9 WSW 22 28 12 15 1014.9 1014.8 1.8
 
Date/Time
EST
Temp
°C
App
Temp
°C
Dew
Point
Rel
Hum
%
Delta-T
°C
Wind Press
QNH
hPa
Press
MSL
hPa
Rain
since 9 am
mm
Dir
 
Spd
km/h
Gust
km/h
Spd
kts
Gust
kts
17/11:30pm 3.0 -2.8 0.2 82 1.1 WSW 20 26 11 14 1014.9 1014.8 1.8
17/11:00pm 2.5 -3.3 0.1 84 0.9 WSW 20 26 11 14 1014.8 1014.7 1.8
17/10:30pm 2.5 -3.3 0.1 84 0.9 WSW 20 28 11 15 1014.8 1014.7 1.8
17/10:00pm 2.5 -4.0 0.2 85 0.9 WSW 24 35 13 19 1014.7 1014.6 1.8
17/09:30pm 3.2 -4.5 0.1 80 1.2 WSW 30 39 16 21 1014.6 1014.5 1.8
17/09:00pm 2.9 -3.9 0.8 86 0.8 WSW 26 32 14 17 1014.6 1014.5 1.8
17/08:30pm 3.0 -3.4 1.2 88 0.7 WSW 24 37 13 20 1014.5 1014.4 1.8
17/08:00pm 3.1 -4.4 1.5 89 0.7 SW 30 44 16 24 1014.4 1014.3 1.8
17/07:30pm 3.3 -2.4 2.6 95 0.3 SW 22 41 12 22 1013.7 1013.6 1.6
17/07:00pm 4.1 -1.1 3.4 95 0.3 SSW 20 41 11 22 1013.1 1013.0 1.0
17/06:30pm 5.4 1.7 4.7 95 0.3 SSW 13 22 7 12 1012.2 1012.1 0.6
17/06:00pm 5.7 1.3 4.8 94 0.4 SW 17 26 9 14 1011.8 1011.6 0.6
17/05:30pm 5.9 2.7 5.3 96 0.3 SSW 11 20 6 11 1011.1 1011.0 0.4
17/05:00pm 6.7 2.5 5.5 92 0.6 S 17 26 9 14 1010.5 1010.3 0.0
17/04:30pm 7.6 4.5 5.4 86 1.0 S 11 19 6 10 1009.8 1009.7 0.0
17/04:00pm 10.3 6.3 2.9 60 3.3 S 13 17 7 9 1009.3 1009.1 0.0
17/03:30pm 10.7 5.1 1.0 51 4.2 W 20 32 11 17 1008.8 1008.6 0.0
17/03:00pm 11.6 3.7 1.0 48 4.7 WNW 32 37 17 20 1008.5 1008.2 0.0
17/02:36pm 12.0 4.7 0.1 44 5.1 WSW 28 48 15 26 1008.3 1008.1 0.0
17/02:30pm 12.1 5.4 1.4 48 4.7 W 26 41 14 22 1008.5 1008.2 0.0
17/02:00pm 12.3 5.7 1.9 49 4.7 W 26 37 14 20 1008.5 1008.2 0.0
17/01:30pm 11.6 6.3 3.1 56 3.9 WSW 20 35 11 19 1008.5 1008.2 0.0
17/01:00pm 11.0 5.6 2.3 55 3.9 W 20 28 11 15 1008.6 1008.4 0.0
17/12:30pm 10.7 3.7 2.0 55 3.9 W 28 41 15 22 1008.8 1008.6 0.0
17/12:00pm 11.4 5.4 3.4 58 3.7 W 24 39 13 21 1009.1 1008.9 0.0
17/11:30am 11.2 6.2 3.5 59 3.5 W 19 32 10 17 1009.3 1009.1 0.0
17/11:00am 10.2 5.1 2.8 60 3.3 W 19 30 10 16 1009.7 1009.6 0.0
17/10:30am 9.2 4.3 2.3 62 3.0 W 17 24 9 13 1010.1 1009.9 0.0
17/10:00am 9.0 4.6 2.6 64 2.8 W 15 20 8 11 1010.2 1010.0 0.0
17/09:30am 8.2 4.0 1.6 63 2.8 W 13 20 7 11 1010.4 1010.2 0.0
17/09:00am 8.0 3.0 1.2 62 2.9 W 17 26 9 14 1010.7 1010.5 7.0
17/08:30am 8.3 3.6 0.8 59 3.2 W 15 26 8 14 1010.8 1010.7 7.0
17/08:00am 7.7 3.2 2.2 68 2.4 WSW 15 24 8 13 1010.7 1010.5 7.0
17/07:30am 7.5 4.0 3.4 75 1.8 W 11 15 6 8 1010.5 1010.3 7.0
17/07:00am 5.6 2.4 3.3 85 1.0 NW 9 11 5 6 1010.4 1010.2 7.0
17/06:30am 5.1 2.6 4.5 96 0.3 WNW 7 7 4 4 1010.4 1010.2 7.0
17/06:00am 5.6 3.1 4.9 95 0.3 W 7 11 4 6 1010.4 1010.2 7.0
17/05:30am 5.9 2.7 5.3 96 0.3 WSW 11 13 6 7 1010.2 1010.0 7.0
17/05:00am 6.0 2.1 5.3 95 0.3 WSW 15 20 8 11 1010.1 1009.9 7.0
17/04:30am 6.0 2.0 5.1 94 0.4 WSW 15 20 8 11 1009.7 1009.6 7.0
17/04:00am 6.1 1.8 5.2 94 0.4 SW 17 22 9 12 1009.7 1009.6 7.0
17/03:30am 6.2 2.2 5.0 92 0.5 SW 15 22 8 12 1009.6 1009.5 7.0
17/03:00am 6.0 2.0 4.8 92 0.5 SW 15 20 8 11 1009.6 1009.5 7.0
17/02:30am 6.0 1.6 4.5 90 0.7 SW 17 24 9 13 1009.5 1009.3 7.0
17/02:00am 6.0 1.5 4.3 89 0.8 WSW 17 26 9 14 1009.7 1009.6 7.0
17/01:30am 6.3 1.9 4.5 88 0.8 WSW 17 24 9 13 1010.0 1009.8 7.0
17/01:00am 6.7 2.0 5.0 89 0.8 SW 19 24 10 13 1010.2 1010.0 7.0
17/12:30am 6.9 2.0 5.1 88 0.8 SW 20 26 11 14 1010.2 1010.0 7.0
17/12:00am 7.0 1.4 5.3 89 0.8 WSW 24 32 13 17 1010.1 1009.9 7.0
 
Date/Time
EST
Temp
°C
App
Temp
°C
Dew
Point
Rel
Hum
%
Delta-T
°C
Wind Press
QNH
hPa
Press
MSL
hPa
Rain
since 9 am
mm
Dir
 
Spd
km/h
Gust
km/h
Spd
kts
Gust
kts
16/11:30pm 7.3 2.2 5.9 91 0.7 WSW 22 32 12 17 1010.3 1010.1 7.0
16/11:00pm 7.7 2.6 6.2 90 0.7 SW 22 32 12 17 1010.4 1010.2 7.0
16/10:30pm 7.9 2.1 6.2 89 0.8 WSW 26 37 14 20 1010.6 1010.4 7.0
16/10:00pm 8.3 2.7 7.2 93 0.5 WSW 26 35 14 19 1010.2 1010.0 7.0
16/09:30pm 8.3 4.5 7.7 96 0.3 SW 17 22 9 12 1010.2 1010.0 7.0
16/09:00pm 8.5 3.8 7.6 94 0.4 WSW 22 32 12 17 1009.8 1009.7 7.0
16/08:30pm 8.3 3.9 7.5 95 0.4 WSW 20 28 11 15 1009.6 1009.5 7.0
16/08:00pm 8.2 4.3 7.0 92 0.6 WSW 17 26 9 14 1009.6 1009.5 7.0
16/07:30pm 8.2 5.1 7.1 93 0.5 WSW 13 19 7 10 1009.5 1009.3 6.8
16/07:00pm 8.6 3.5 7.8 95 0.4 WSW 24 32 13 17 1009.2 1009.0 5.8
16/06:30pm 8.8 7.1 8.5 98 0.2 SW 7 11 4 6 1009.0 1008.8 4.6
16/06:00pm 8.8 4.8 8.2 96 0.3 WSW 19 26 10 14 1008.8 1008.6 2.8
16/05:30pm 8.9 4.3 8.0 94 0.5 WSW 22 32 12 17 1008.1 1007.9 1.0
16/05:00pm 9.4 4.4 8.2 92 0.6 WSW 24 32 13 17 1007.5 1007.3 0.8
16/04:30pm 10.9 6.7 8.3 84 1.3 SW 20 37 11 20 1006.9 1006.7 0.0
16/04:00pm 13.4 10.5 8.0 70 2.8 SSW 13 24 7 13 1006.2 1005.9 0.0
16/03:30pm 14.3 10.7 8.3 67 3.1 S 17 24 9 13 1005.5 1005.3 0.0
16/03:00pm 16.2 11.3 6.9 54 4.8 WSW 22 37 12 20 1005.5 1005.3 0.0
16/02:30pm 15.2 12.1 7.2 59 4.1 WNW 13 17 7 9 1005.2 1005.0 0.0
16/02:00pm 16.2 13.0 5.2 48 5.5 WNW 11 19 6 10 1005.4 1005.2 0.0
16/01:30pm 16.1 12.5 5.1 48 5.4 NNW 13 24 7 13 1005.7 1005.4 0.0
16/01:00pm 15.7 13.2 8.2 61 4.0 N 11 15 6 8 1005.9 1005.6 0.0
16/12:30pm 14.8 12.1 9.0 68 3.1 NNE 13 22 7 12 1006.2 1005.9 0.0
16/12:00pm 14.1 11.1 9.1 72 2.7 NNE 15 20 8 11 1006.8 1006.6 0.0

Other Formats:

Comma delimited format used in spreadsheet applications
http://www.bom.gov.au/fwo/IDV60801/IDV60801.94913.axf

JavaScript Object Notation format (JSON) in row-major order
http://www.bom.gov.au/fwo/IDV60801/IDV60801.94913.json